Meteo Giornale » Osservazioni meteo Italia » Trieste

ore: 15:55 - Osservazioni Meteo Trieste
Lat. 45° 39' N Lon. 13° 45' E Alt. 8 metri s.l.m.

sereno Europe/Rome

26 °C

Sereno

Temp. 24 Ore

20 °C

26 °C

Nord

0 Km/h

Dew point 17 °C

Umidità 57 %

Visibilità  10 Km

Il sole sorge alle ore 05:19

Il sole tramonta alle ore 20:45

Data e Ora Cielo e Fenomeni T °C DP °C Um. % Pres. hPa Vis. km Vento km/h
Oggi h: 15:55 sereno Sereno 26 17 57 1020 10 N 0
Oggi h: 14:55 sereno Sereno 26 17 57 1020 10 N 0
Oggi h: 13:55 sereno Sereno 26 16 54 1021 10 N 0
Oggi h: 12:55 sereno Sereno 25 17 61 1021 10 N 0
Oggi h: 11:55 sereno Sereno 25 19 69 1021 10 N 1.8
Oggi h: 10:55 sereno Sereno 24 18 69 1021 10 N 0
Oggi h: 09:55 sereno Sereno 24 15 57 1021 10 N 0
Oggi h: 08:55 sereno Sereno 25 15 53 1021 10 N 0
Oggi h: 07:55 sereno Sereno 22 12 53 1021 10 N 1.8
Oggi h: 06:55 sereno Sereno 20 12 59 1020 10 N 0
Oggi h: 05:55 sereno Sereno 20 11 56 1020 10 N 5.5
Oggi h: 04:55 molto_nuvoloso Molto Nuvoloso 21 12 56 1020 10 N 0
Oggi h: 03:55 sereno Sereno 22 11 49 1021 10 N 5.5
Oggi h: 02:55 sereno Sereno 22 12 53 1021 10 N 1.8
Oggi h: 01:55 sereno Sereno 21 14 64 1021 10 N 0
Oggi h: 00:55 sereno Sereno 20 13 64 1020 10 N 0
Ieri h: 23:55 sereno Sereno 20 13 64 1020 10 N 0
Ieri h: 21:55 poco_nuvoloso Poco Nuvoloso 21 14 64 1018 10 N 3.7
Ieri h: 20:55 sereno Sereno 23 17 68 1018 10 N 3.7
Ieri h: 19:55 sereno Sereno 24 18 69 1018 10 N 1.8
Ieri h: 18:55 sereno Sereno 26 18 61 1018 10 N 0
Ieri h: 17:55 sereno Sereno 25 17 61 1018 10 N 0
Ieri h: 16:55 poco_nuvoloso Poco Nuvoloso 24 18 69 1018 10 N 0